createdAt,value
2023-02-16T00:01:26.693Z,100.00
2023-02-16T00:03:57.242Z,100.00
2023-02-16T00:06:26.215Z,100.00
2023-02-16T00:08:55.846Z,100.00
2023-02-16T00:11:45.279Z,100.00
2023-02-16T00:14:13.771Z,100.00
2023-02-16T00:16:41.896Z,100.00
2023-02-16T00:19:22.319Z,100.00
2023-02-16T00:21:51.639Z,100.00
2023-02-16T00:24:19.776Z,100.00
2023-02-16T00:26:48.570Z,100.00
2023-02-16T00:29:21.635Z,100.00
2023-02-16T00:31:50.414Z,100.00
2023-02-16T00:34:31.770Z,100.00
2023-02-16T00:37:01.239Z,100.00
2023-02-16T00:39:29.733Z,100.00
2023-02-16T00:42:00.801Z,100.00
2023-02-16T00:44:33.039Z,100.00
2023-02-16T00:47:03.608Z,100.00
2023-02-16T00:49:32.719Z,100.00
2023-02-16T00:52:00.412Z,100.00
2023-02-16T00:54:30.385Z,100.00
2023-02-16T00:56:58.905Z,100.00
2023-02-16T00:59:26.636Z,100.00
2023-02-16T01:01:54.492Z,100.00
2023-02-16T01:04:24.623Z,100.00
2023-02-16T01:07:12.209Z,100.00
2023-02-16T01:09:57.569Z,100.00
2023-02-16T01:12:25.341Z,100.00
2023-02-16T01:14:55.303Z,100.00
2023-02-16T01:17:23.852Z,100.00
2023-02-16T01:19:51.510Z,100.00
2023-02-16T01:22:20.612Z,100.00
2023-02-16T01:24:48.282Z,100.00
2023-02-16T01:27:15.992Z,100.00
2023-02-16T01:29:43.715Z,100.00
2023-02-16T01:32:13.356Z,100.00
2023-02-16T01:34:41.212Z,100.00
2023-02-16T01:37:16.183Z,100.00
2023-02-16T01:39:45.606Z,100.00
2023-02-16T01:42:26.683Z,100.00
2023-02-16T01:45:00.219Z,100.00
2023-02-16T01:47:37.081Z,100.00
2023-02-16T01:50:17.269Z,100.00
2023-02-16T01:52:48.989Z,100.00
2023-02-16T01:55:23.216Z,100.00
2023-02-16T01:57:53.927Z,100.00
2023-02-16T02:00:28.420Z,100.00
2023-02-16T02:03:19.521Z,100.00
2023-02-16T02:05:47.353Z,100.00
2023-02-16T02:08:24.657Z,100.00
2023-02-16T02:11:04.297Z,100.00
2023-02-16T02:13:40.667Z,100.00
2023-02-16T02:16:09.708Z,100.00
2023-02-16T02:18:37.441Z,100.00
2023-02-16T02:21:49.249Z,100.00
2023-02-16T02:25:10.471Z,100.00
2023-02-16T02:27:41.900Z,100.00
2023-02-16T02:30:24.502Z,100.00
2023-02-16T02:33:15.057Z,100.00
2023-02-16T02:35:52.252Z,100.00
2023-02-16T02:38:28.929Z,100.00
2023-02-16T02:41:05.127Z,100.00
2023-02-16T02:43:40.287Z,100.00
2023-02-16T02:46:15.107Z,100.00
2023-02-16T02:48:44.901Z,100.00
2023-02-16T02:51:33.629Z,100.00
2023-02-16T02:54:21.950Z,100.00
2023-02-16T02:57:14.436Z,100.00
2023-02-16T03:00:11.034Z,100.00
2023-02-16T03:02:41.661Z,100.00
2023-02-16T03:05:12.817Z,100.00
2023-02-16T03:07:50.246Z,100.00
2023-02-16T03:10:38.364Z,100.00
2023-02-16T03:13:12.622Z,100.00
2023-02-16T03:15:42.871Z,100.00
2023-02-16T03:18:31.430Z,100.00
2023-02-16T03:21:18.684Z,100.00
2023-02-16T03:24:05.447Z,100.00
2023-02-16T03:26:52.423Z,100.00
2023-02-16T03:29:22.540Z,100.00
2023-02-16T03:31:54.250Z,100.00
2023-02-16T03:34:23.235Z,100.00
2023-02-16T03:36:53.797Z,100.00
2023-02-16T03:39:22.181Z,100.00
2023-02-16T03:41:52.602Z,100.00
2023-02-16T03:44:21.215Z,100.00
2023-02-16T03:46:50.806Z,100.00
2023-02-16T03:49:19.538Z,100.00
2023-02-16T03:51:47.592Z,100.00
2023-02-16T03:54:15.421Z,100.00
2023-02-16T03:56:45.513Z,100.00
2023-02-16T03:59:13.188Z,100.00
2023-02-16T04:01:40.868Z,100.00
2023-02-16T04:04:10.028Z,100.00
2023-02-16T04:06:37.858Z,100.00
2023-02-16T04:09:05.704Z,100.00
2023-02-16T04:11:53.312Z,100.00
2023-02-16T04:14:21.092Z,100.00
2023-02-16T04:16:48.842Z,100.00
2023-02-16T04:19:20.830Z,100.00
2023-02-16T04:21:48.540Z,100.00
2023-02-16T04:24:18.903Z,100.00
2023-02-16T04:26:46.645Z,100.00
2023-02-16T04:29:14.345Z,100.00
2023-02-16T04:31:42.190Z,100.00
2023-02-16T04:34:10.034Z,100.00
2023-02-16T04:36:39.057Z,100.00
2023-02-16T04:39:06.724Z,100.00
2023-02-16T04:41:37.847Z,100.00
2023-02-16T04:44:05.935Z,100.00
2023-02-16T04:46:33.698Z,100.00
2023-02-16T04:49:01.364Z,100.00
2023-02-16T04:51:30.060Z,100.00
2023-02-16T04:53:59.115Z,100.00
2023-02-16T04:56:28.177Z,100.00
2023-02-16T04:58:57.160Z,100.00
2023-02-16T05:01:26.701Z,100.00
2023-02-16T05:04:00.546Z,100.00
2023-02-16T05:06:28.293Z,100.00
2023-02-16T05:08:56.026Z,100.00
2023-02-16T05:11:42.605Z,100.00
2023-02-16T05:14:36.478Z,100.00
2023-02-16T05:17:04.456Z,100.00
2023-02-16T05:19:32.459Z,100.00
2023-02-16T05:22:00.284Z,100.00
2023-02-16T05:24:28.605Z,100.00
2023-02-16T05:26:57.905Z,100.00
2023-02-16T05:29:25.840Z,100.00
2023-02-16T05:31:53.764Z,100.00
2023-02-16T05:34:21.918Z,100.00
2023-02-16T05:36:49.611Z,100.00
2023-02-16T05:39:17.635Z,100.00
2023-02-16T05:41:45.535Z,100.00
2023-02-16T05:44:14.730Z,100.00
2023-02-16T05:46:43.056Z,100.00
2023-02-16T05:49:10.874Z,100.00
2023-02-16T05:51:40.813Z,100.00
2023-02-16T05:54:10.649Z,100.00
2023-02-16T05:56:38.382Z,100.00
2023-02-16T05:59:06.038Z,100.00
2023-02-16T06:01:35.092Z,100.00
2023-02-16T06:04:02.896Z,100.00
2023-02-16T06:06:30.619Z,100.00
2023-02-16T06:08:58.343Z,100.00
2023-02-16T06:11:37.951Z,100.00
2023-02-16T06:14:08.086Z,100.00
2023-02-16T06:16:38.200Z,100.00
2023-02-16T06:19:06.758Z,100.00
2023-02-16T06:21:35.695Z,100.00
2023-02-16T06:24:03.924Z,100.00
2023-02-16T06:26:31.815Z,100.00
2023-02-16T06:28:59.833Z,100.00
2023-02-16T06:31:28.095Z,100.00
2023-02-16T06:33:57.798Z,100.00
2023-02-16T06:36:26.078Z,100.00
2023-02-16T06:38:53.840Z,100.00
2023-02-16T06:41:32.337Z,100.00
2023-02-16T06:44:00.968Z,100.00
2023-02-16T06:46:28.904Z,100.00
2023-02-16T06:48:58.013Z,100.00
2023-02-16T06:51:25.857Z,100.00
2023-02-16T06:53:53.720Z,100.00
2023-02-16T06:56:24.750Z,100.00
2023-02-16T06:58:52.492Z,100.00
2023-02-16T07:01:23.203Z,100.00
2023-02-16T07:06:30.901Z,100.00
2023-02-16T07:08:58.668Z,100.00
2023-02-16T07:11:26.452Z,100.00
2023-02-16T07:13:54.212Z,100.00
2023-02-16T07:16:22.353Z,100.00
2023-02-16T07:18:50.133Z,100.00
2023-02-16T07:21:18.058Z,100.00
2023-02-16T07:23:47.356Z,100.00
2023-02-16T07:26:15.103Z,100.00
2023-02-16T07:28:43.180Z,100.00
2023-02-16T07:31:12.650Z,100.00
2023-02-16T07:33:40.627Z,100.00
2023-02-16T07:36:09.801Z,100.00
2023-02-16T07:38:38.428Z,100.00
2023-02-16T07:41:09.707Z,100.00
2023-02-16T07:43:38.548Z,100.00
2023-02-16T07:46:06.694Z,100.00
2023-02-16T07:48:34.719Z,100.00
2023-02-16T07:51:03.329Z,100.00
2023-02-16T07:53:31.239Z,100.00
2023-02-16T07:55:58.973Z,100.00
2023-02-16T07:58:28.308Z,100.00
2023-02-16T08:00:57.393Z,100.00
2023-02-16T08:03:25.423Z,100.00
2023-02-16T08:05:53.280Z,100.00
2023-02-16T08:08:21.185Z,100.00
2023-02-16T08:10:48.996Z,100.00
2023-02-16T08:13:16.692Z,100.00
2023-02-16T08:15:46.068Z,100.00
2023-02-16T08:18:16.915Z,100.00
2023-02-16T08:21:03.865Z,100.00
2023-02-16T08:23:32.382Z,100.00
2023-02-16T08:26:00.330Z,100.00
2023-02-16T08:28:29.440Z,100.00
2023-02-16T08:31:04.130Z,100.00
2023-02-16T08:33:33.143Z,100.00
2023-02-16T08:36:00.890Z,100.00
2023-02-16T08:38:28.625Z,100.00
2023-02-16T08:40:56.558Z,100.00
2023-02-16T08:43:24.425Z,100.00
2023-02-16T08:45:52.799Z,100.00
2023-02-16T08:48:23.267Z,100.00
2023-02-16T08:50:54.024Z,100.00
2023-02-16T08:53:23.225Z,100.00
2023-02-16T08:55:55.710Z,100.00
2023-02-16T08:58:24.514Z,100.00
2023-02-16T09:00:52.748Z,100.00
2023-02-16T09:03:22.049Z,100.00
2023-02-16T09:05:51.324Z,100.00
2023-02-16T09:08:19.214Z,100.00
2023-02-16T09:10:47.099Z,100.00
2023-02-16T09:13:16.235Z,100.00
2023-02-16T09:15:44.862Z,100.00
2023-02-16T09:18:14.047Z,100.00
2023-02-16T09:20:46.778Z,100.00
2023-02-16T09:23:15.024Z,100.00
2023-02-16T09:25:42.803Z,100.00
2023-02-16T09:28:11.625Z,100.00
2023-02-16T09:30:39.949Z,100.00
2023-02-16T09:33:07.816Z,100.00
2023-02-16T09:35:35.642Z,100.00
2023-02-16T09:38:04.786Z,100.00
2023-02-16T09:40:32.649Z,100.00
2023-02-16T09:43:09.384Z,100.00
2023-02-16T09:45:42.527Z,100.00
2023-02-16T09:48:24.509Z,100.00
2023-02-16T09:50:55.229Z,99.92
2023-02-16T09:53:37.216Z,95.13
2023-02-16T09:56:15.362Z,93.52
2023-02-16T09:58:47.577Z,89.58
2023-02-16T10:01:25.791Z,82.85
2023-02-16T10:04:01.303Z,80.22
2023-02-16T10:06:40.472Z,76.91
2023-02-16T10:09:14.070Z,75.37
2023-02-16T10:11:48.905Z,71.09
2023-02-16T10:14:30.756Z,66.49
2023-02-16T10:17:08.863Z,67.21
2023-02-16T10:19:40.790Z,65.24
2023-02-16T10:22:14.456Z,63.60
2023-02-16T10:24:53.141Z,61.96
2023-02-16T10:27:22.919Z,61.48
2023-02-16T10:29:50.728Z,59.27
2023-02-16T10:32:26.887Z,58.71
2023-02-16T10:35:07.738Z,59.46
2023-02-16T10:37:45.183Z,61.30
2023-02-16T10:40:27.967Z,62.64
2023-02-16T10:43:01.879Z,61.63
2023-02-16T10:45:37.124Z,58.79
2023-02-16T10:48:06.021Z,55.63
2023-02-16T10:50:40.170Z,54.22
2023-02-16T10:53:13.396Z,52.28
2023-02-16T10:55:42.630Z,50.94
2023-02-16T10:58:18.833Z,51.75
2023-02-16T11:00:53.101Z,52.00
2023-02-16T11:03:25.326Z,50.99
2023-02-16T11:05:54.734Z,51.08
2023-02-16T11:08:24.188Z,50.64
2023-02-16T11:10:54.875Z,50.61
2023-02-16T11:13:29.051Z,49.55
2023-02-16T11:15:59.187Z,50.07
2023-02-16T11:18:33.916Z,49.49
2023-02-16T11:21:03.372Z,50.67
2023-02-16T11:23:33.207Z,51.90
2023-02-16T11:26:06.236Z,53.03
2023-02-16T11:28:36.254Z,53.39
2023-02-16T11:31:25.080Z,51.43
2023-02-16T11:33:59.955Z,51.40
2023-02-16T11:36:35.445Z,52.20
2023-02-16T11:39:07.558Z,50.50
2023-02-16T11:41:37.378Z,50.07
2023-02-16T11:44:05.675Z,51.19
2023-02-16T11:46:41.616Z,49.63
2023-02-16T11:49:32.761Z,50.20
2023-02-16T11:52:00.753Z,48.41
2023-02-16T11:54:28.668Z,48.21
2023-02-16T11:57:09.267Z,48.36
2023-02-16T11:59:39.833Z,47.22
2023-02-16T12:02:37.542Z,46.49
2023-02-16T12:05:19.584Z,46.56
2023-02-16T12:07:59.828Z,45.11
2023-02-16T12:10:35.144Z,44.98
2023-02-16T12:13:16.477Z,45.28
2023-02-16T12:15:49.491Z,44.91
2023-02-16T12:18:27.980Z,44.21
2023-02-16T12:21:02.465Z,45.29
2023-02-16T12:23:38.277Z,46.01
2023-02-16T12:26:31.692Z,44.48
2023-02-16T12:29:11.155Z,45.10
2023-02-16T12:31:54.371Z,45.26
2023-02-16T12:34:34.281Z,45.71
2023-02-16T12:37:12.531Z,43.54
2023-02-16T12:39:46.812Z,44.12
2023-02-16T12:42:31.431Z,42.32
2023-02-16T12:45:05.508Z,43.51
2023-02-16T12:47:39.676Z,43.78
2023-02-16T12:50:19.688Z,43.35
2023-02-16T12:52:52.816Z,42.99
2023-02-16T12:55:25.541Z,42.38
2023-02-16T12:58:02.911Z,40.92
2023-02-16T13:00:42.881Z,42.09
2023-02-16T13:03:26.083Z,42.67
2023-02-16T13:06:02.575Z,40.78
2023-02-16T13:08:39.600Z,41.12
2023-02-16T13:11:15.543Z,41.71
2023-02-16T13:13:46.728Z,41.48
2023-02-16T13:16:30.182Z,41.23
2023-02-16T13:18:58.990Z,41.58
2023-02-16T13:21:54.167Z,40.58
2023-02-16T13:24:33.835Z,40.31
2023-02-16T13:27:16.260Z,38.08
2023-02-16T13:30:04.376Z,38.13
2023-02-16T13:32:52.341Z,39.49
2023-02-16T13:35:42.841Z,38.15
2023-02-16T13:38:44.657Z,39.00
2023-02-16T13:41:30.789Z,39.26
2023-02-16T13:44:01.451Z,39.99
2023-02-16T13:46:33.490Z,39.74
2023-02-16T13:49:03.423Z,39.61
2023-02-16T13:51:43.523Z,40.55
2023-02-16T13:54:24.751Z,40.62
2023-02-16T13:56:52.625Z,39.86
2023-02-16T13:59:57.008Z,39.51
2023-02-16T14:02:56.367Z,39.26
2023-02-16T14:05:28.814Z,38.32
2023-02-16T14:08:18.030Z,37.34
2023-02-16T14:11:06.982Z,34.55
2023-02-16T14:13:45.252Z,33.06
2023-02-16T14:16:29.079Z,31.08
2023-02-16T14:18:59.318Z,30.78
2023-02-16T14:21:38.723Z,30.55
2023-02-16T14:24:11.735Z,28.58
2023-02-16T14:26:55.871Z,27.81
2023-02-16T14:29:28.107Z,25.94
2023-02-16T14:32:02.161Z,25.75
2023-02-16T14:34:32.281Z,24.65
2023-02-16T14:37:29.222Z,23.64
2023-02-16T14:40:08.142Z,23.20
2023-02-16T14:42:37.088Z,23.03
2023-02-16T14:45:19.798Z,22.11
2023-02-16T14:48:00.092Z,23.03
2023-02-16T14:50:42.610Z,25.82
2023-02-16T14:53:37.453Z,29.44
2023-02-16T14:56:25.791Z,33.00
2023-02-16T14:58:57.806Z,35.55
2023-02-16T15:01:26.179Z,37.23
2023-02-16T15:03:56.639Z,37.23
2023-02-16T15:06:32.054Z,37.48
2023-02-16T15:09:03.868Z,38.09
2023-02-16T15:11:34.837Z,37.95
2023-02-16T15:14:05.756Z,38.17
2023-02-16T15:16:34.060Z,37.95
2023-02-16T15:19:11.495Z,37.79
2023-02-16T15:21:39.379Z,38.44
2023-02-16T15:24:23.260Z,38.09
2023-02-16T15:26:57.945Z,37.21
2023-02-16T15:29:28.252Z,37.48
2023-02-16T15:31:58.202Z,37.83
2023-02-16T15:34:34.988Z,37.85
2023-02-16T15:37:20.216Z,38.38
2023-02-16T15:40:08.671Z,38.39
2023-02-16T15:42:43.339Z,38.67
2023-02-16T15:45:34.162Z,38.75
2023-02-16T15:48:15.984Z,38.71
2023-02-16T15:50:44.467Z,39.25
2023-02-16T15:53:16.585Z,39.83
2023-02-16T15:55:47.817Z,40.19
2023-02-16T15:58:16.975Z,40.14
2023-02-16T16:00:47.710Z,41.82
2023-02-16T16:03:17.544Z,41.72
2023-02-16T16:05:58.442Z,41.84
2023-02-16T16:08:28.803Z,41.99
2023-02-16T16:10:58.733Z,41.83
2023-02-16T16:13:29.318Z,41.98
2023-02-16T16:16:02.046Z,43.21
2023-02-16T16:18:43.247Z,42.78
2023-02-16T16:21:18.910Z,43.80
2023-02-16T16:24:00.407Z,44.39
2023-02-16T16:26:31.824Z,46.13
2023-02-16T16:28:59.879Z,46.26
2023-02-16T16:31:41.577Z,50.08
2023-02-16T16:34:12.616Z,54.04
2023-02-16T16:36:46.904Z,58.03
2023-02-16T16:39:25.417Z,60.97
2023-02-16T16:42:24.929Z,67.37
2023-02-16T16:44:59.444Z,70.35
2023-02-16T16:47:30.874Z,72.90
2023-02-16T16:50:00.414Z,79.95
2023-02-16T16:52:38.345Z,85.45
2023-02-16T16:55:26.181Z,88.44
2023-02-16T16:57:57.003Z,95.18
2023-02-16T17:00:27.411Z,97.17
2023-02-16T17:02:55.207Z,100.00
2023-02-16T17:05:23.104Z,100.00
2023-02-16T17:07:51.837Z,100.00
2023-02-16T17:10:21.663Z,100.00
2023-02-16T17:12:52.962Z,100.00
2023-02-16T17:15:43.944Z,100.00
2023-02-16T17:18:15.744Z,100.00
2023-02-16T17:20:44.107Z,100.00
2023-02-16T17:23:12.913Z,100.00
2023-02-16T17:25:41.354Z,100.00
2023-02-16T17:28:10.385Z,100.00
2023-02-16T17:30:38.370Z,100.00
2023-02-16T17:33:08.214Z,100.00
2023-02-16T17:35:37.394Z,100.00
2023-02-16T17:38:09.141Z,100.00
2023-02-16T17:40:36.876Z,100.00
2023-02-16T17:43:11.933Z,100.00
2023-02-16T17:45:39.775Z,100.00
2023-02-16T17:48:08.933Z,100.00
2023-02-16T17:50:36.816Z,100.00
2023-02-16T17:53:04.566Z,100.00
2023-02-16T17:55:32.325Z,100.00
2023-02-16T17:58:00.098Z,100.00
2023-02-16T18:00:27.863Z,100.00
2023-02-16T18:02:55.637Z,100.00
2023-02-16T18:05:24.755Z,100.00
2023-02-16T18:07:52.688Z,100.00
2023-02-16T18:10:33.246Z,100.00
2023-02-16T18:13:01.045Z,100.00
2023-02-16T18:15:28.896Z,100.00
2023-02-16T18:17:56.709Z,100.00
2023-02-16T18:20:26.574Z,100.00
2023-02-16T18:22:55.012Z,100.00
2023-02-16T18:25:22.820Z,100.00
2023-02-16T18:27:50.970Z,100.00
2023-02-16T18:30:18.871Z,100.00
2023-02-16T18:32:46.802Z,100.00
2023-02-16T18:35:15.147Z,100.00
2023-02-16T18:37:44.971Z,100.00
2023-02-16T18:40:16.672Z,100.00
2023-02-16T18:42:45.165Z,100.00
2023-02-16T18:45:13.195Z,100.00
2023-02-16T18:47:40.906Z,100.00
2023-02-16T18:50:09.792Z,100.00
2023-02-16T18:52:37.536Z,100.00
2023-02-16T18:55:07.305Z,100.00
2023-02-16T18:57:35.010Z,100.00
2023-02-16T19:00:03.279Z,100.00
2023-02-16T19:02:30.992Z,100.00
2023-02-16T19:04:58.823Z,100.00
2023-02-16T19:07:26.541Z,100.00
2023-02-16T19:09:56.752Z,100.00
2023-02-16T19:12:26.227Z,100.00
2023-02-16T19:14:53.997Z,100.00
2023-02-16T19:17:24.428Z,100.00
2023-02-16T19:19:52.183Z,100.00
2023-02-16T19:22:19.871Z,100.00
2023-02-16T19:24:50.077Z,100.00
2023-02-16T19:27:18.240Z,100.00
2023-02-16T19:29:47.414Z,100.00
2023-02-16T19:32:15.185Z,100.00
2023-02-16T19:34:42.902Z,100.00
2023-02-16T19:37:10.673Z,100.00
2023-02-16T19:39:38.435Z,100.00
2023-02-16T19:42:06.649Z,100.00
2023-02-16T19:44:35.420Z,100.00
2023-02-16T19:47:04.508Z,100.00
2023-02-16T19:49:32.333Z,100.00
2023-02-16T19:52:02.341Z,100.00
2023-02-16T19:54:30.904Z,100.00
2023-02-16T19:56:58.627Z,100.00
2023-02-16T19:59:26.334Z,100.00
2023-02-16T20:01:54.182Z,100.00
2023-02-16T20:04:23.504Z,100.00
2023-02-16T20:06:53.969Z,100.00
2023-02-16T20:09:22.513Z,100.00
2023-02-16T20:11:50.628Z,100.00
2023-02-16T20:14:18.791Z,100.00
2023-02-16T20:16:46.581Z,100.00
2023-02-16T20:19:15.112Z,100.00
2023-02-16T20:21:46.196Z,100.00
2023-02-16T20:24:15.222Z,100.00
2023-02-16T20:26:45.403Z,100.00
2023-02-16T20:29:16.169Z,100.00
2023-02-16T20:31:48.349Z,100.00
2023-02-16T20:34:16.368Z,100.00
2023-02-16T20:36:47.154Z,100.00
2023-02-16T20:39:14.961Z,100.00
2023-02-16T20:41:43.082Z,100.00
2023-02-16T20:44:12.552Z,100.00
2023-02-16T20:46:40.982Z,100.00
2023-02-16T20:49:09.629Z,100.00
2023-02-16T20:51:38.293Z,100.00
2023-02-16T20:54:07.505Z,100.00
2023-02-16T20:56:35.567Z,100.00
2023-02-16T20:59:03.579Z,100.00
2023-02-16T21:01:33.746Z,100.00
2023-02-16T21:04:02.047Z,100.00
2023-02-16T21:06:30.301Z,100.00
2023-02-16T21:08:59.283Z,100.00
2023-02-16T21:11:28.623Z,100.00
2023-02-16T21:13:57.655Z,100.00
2023-02-16T21:16:26.122Z,100.00
2023-02-16T21:18:53.963Z,100.00
2023-02-16T21:21:21.918Z,100.00
2023-02-16T21:23:51.938Z,100.00
2023-02-16T21:26:21.364Z,100.00
2023-02-16T21:28:54.286Z,100.00
2023-02-16T21:31:25.255Z,100.00
2023-02-16T21:33:53.543Z,100.00
2023-02-16T21:36:24.658Z,100.00
2023-02-16T21:38:54.904Z,100.00
2023-02-16T21:41:26.172Z,100.00
2023-02-16T21:44:00.587Z,100.00
2023-02-16T21:46:31.299Z,99.90
2023-02-16T21:48:58.578Z,98.55
2023-02-16T21:51:28.995Z,98.49
2023-02-16T21:53:58.082Z,96.57
2023-02-16T21:56:33.357Z,96.16
2023-02-16T21:59:02.517Z,95.25
2023-02-16T22:01:32.341Z,93.57
2023-02-16T22:04:01.463Z,94.61
2023-02-16T22:06:32.280Z,95.57
2023-02-16T22:09:00.799Z,92.90
2023-02-16T22:11:28.906Z,92.79
2023-02-16T22:13:57.740Z,92.79
2023-02-16T22:16:29.582Z,92.25
2023-02-16T22:18:58.405Z,92.21
2023-02-16T22:21:26.321Z,92.70
2023-02-16T22:23:54.895Z,90.68
2023-02-16T22:26:24.730Z,90.82
2023-02-16T22:28:52.476Z,89.86
2023-02-16T22:31:22.813Z,90.52
2023-02-16T22:33:57.399Z,90.26
2023-02-16T22:36:25.144Z,89.51
2023-02-16T22:38:53.496Z,89.04
2023-02-16T22:41:21.996Z,88.79
2023-02-16T22:43:53.205Z,88.30
2023-02-16T22:46:21.288Z,88.37
2023-02-16T22:48:49.447Z,87.97
2023-02-16T22:51:19.133Z,87.74
2023-02-16T22:53:47.368Z,87.76
2023-02-16T23:01:04.773Z,87.10
2023-02-16T23:03:32.552Z,86.40
2023-02-16T23:06:00.247Z,86.11
2023-02-16T23:08:27.949Z,86.21
2023-02-16T23:11:01.277Z,85.69
2023-02-16T23:13:30.106Z,85.21
2023-02-16T23:16:03.324Z,84.40
2023-02-16T23:18:35.787Z,84.25
2023-02-16T23:21:07.810Z,84.12
2023-02-16T23:23:35.715Z,83.91
2023-02-16T23:26:04.272Z,83.48
2023-02-16T23:28:32.219Z,84.25
2023-02-16T23:31:00.023Z,82.73
2023-02-16T23:33:28.466Z,83.75
2023-02-16T23:35:57.920Z,82.55
2023-02-16T23:38:26.260Z,83.59
2023-02-16T23:40:57.792Z,83.69
2023-02-16T23:43:25.655Z,84.05
2023-02-16T23:45:53.866Z,83.74
2023-02-16T23:48:22.440Z,84.78
2023-02-16T23:50:50.625Z,85.25
2023-02-16T23:53:20.572Z,86.17
2023-02-16T23:55:58.030Z,85.95
2023-02-16T23:58:27.380Z,86.70
